Terminal Aerodrome Forecast
Issued by NWS

Home | Current Version | Previous Version | Text Only | Print | Product List | Glossary On
Versions: 1 2 3 4 5 6 7 8 9 10 11 12 13 14 15 16 17 18 19 20
000
FTUS46 KSTO 180500
TAFMHR
TAF
KMHR 180530Z 1806/1906 VRB04KT P6SM -RA BKN023 OVC035
     FM180700 VRB04KT P6SM -RA SCT035 OVC060
     FM181300 VRB04KT 3SM BR BKN022
     FM181900 15007KT P6SM BKN050=

USA.gov is the U.S. government's official web portal to all federal, state and local government web resources and services.